sensor_id;sensor_type;location;lat;lon;timestamp;pressure;altitude;pressure_sealevel;temperature
45850;BMP180;10739;52.198;20.908;2023-02-11T00:03:52;101605.00;;;4.50
45850;BMP180;10739;52.198;20.908;2023-02-11T00:06:20;101602.00;;;4.40
45850;BMP180;10739;52.198;20.908;2023-02-11T00:08:46;101597.00;;;5.00
45850;BMP180;10739;52.198;20.908;2023-02-11T00:11:16;101591.00;;;5.00
45850;BMP180;10739;52.198;20.908;2023-02-11T00:13:44;101596.00;;;4.80
45850;BMP180;10739;52.198;20.908;2023-02-11T00:16:16;101589.00;;;4.80
45850;BMP180;10739;52.198;20.908;2023-02-11T00:18:43;101579.00;;;4.90
45850;BMP180;10739;52.198;20.908;2023-02-11T00:21:17;101583.00;;;4.80
45850;BMP180;10739;52.198;20.908;2023-02-11T00:23:45;101573.00;;;4.70
45850;BMP180;10739;52.198;20.908;2023-02-11T00:26:18;101580.00;;;5.00
45850;BMP180;10739;52.198;20.908;2023-02-11T00:28:46;101579.00;;;4.80
45850;BMP180;10739;52.198;20.908;2023-02-11T00:31:15;101566.00;;;5.10
45850;BMP180;10739;52.198;20.908;2023-02-11T00:33:42;101550.00;;;5.10
45850;BMP180;10739;52.198;20.908;2023-02-11T00:36:16;101558.00;;;4.90
45850;BMP180;10739;52.198;20.908;2023-02-11T00:38:44;101559.00;;;4.70
45850;BMP180;10739;52.198;20.908;2023-02-11T00:41:13;101562.00;;;4.90
45850;BMP180;10739;52.198;20.908;2023-02-11T00:43:40;101549.00;;;4.80
45850;BMP180;10739;52.198;20.908;2023-02-11T00:46:07;101535.00;;;4.70
45850;BMP180;10739;52.198;20.908;2023-02-11T00:48:34;101538.00;;;4.70
45850;BMP180;10739;52.198;20.908;2023-02-11T00:51:02;101510.00;;;4.80
45850;BMP180;10739;52.198;20.908;2023-02-11T00:53:30;101504.00;;;4.50
45850;BMP180;10739;52.198;20.908;2023-02-11T00:55:56;101494.00;;;4.60
45850;BMP180;10739;52.198;20.908;2023-02-11T00:58:23;101479.00;;;4.60
45850;BMP180;10739;52.198;20.908;2023-02-11T01:00:50;101483.00;;;4.40
45850;BMP180;10739;52.198;20.908;2023-02-11T01:03:16;101477.00;;;4.40
45850;BMP180;10739;52.198;20.908;2023-02-11T01:05:43;101473.00;;;4.60
45850;BMP180;10739;52.198;20.908;2023-02-11T01:08:09;101470.00;;;4.60
45850;BMP180;10739;52.198;20.908;2023-02-11T01:10:35;101462.00;;;4.50
45850;BMP180;10739;52.198;20.908;2023-02-11T01:13:02;101462.00;;;4.50
45850;BMP180;10739;52.198;20.908;2023-02-11T01:15:28;101468.00;;;4.40
45850;BMP180;10739;52.198;20.908;2023-02-11T01:17:55;101448.00;;;4.30
45850;BMP180;10739;52.198;20.908;2023-02-11T01:20:26;101442.00;;;4.60
45850;BMP180;10739;52.198;20.908;2023-02-11T01:22:52;101440.00;;;4.30
45850;BMP180;10739;52.198;20.908;2023-02-11T01:25:19;101413.00;;;4.60
45850;BMP180;10739;52.198;20.908;2023-02-11T01:27:45;101421.00;;;4.30
45850;BMP180;10739;52.198;20.908;2023-02-11T01:30:13;101410.00;;;4.40
45850;BMP180;10739;52.198;20.908;2023-02-11T01:32:40;101388.00;;;4.60
45850;BMP180;10739;52.198;20.908;2023-02-11T01:35:06;101387.00;;;4.60
45850;BMP180;10739;52.198;20.908;2023-02-11T01:37:34;101390.00;;;4.40
45850;BMP180;10739;52.198;20.908;2023-02-11T01:40:03;101389.00;;;4.40
45850;BMP180;10739;52.198;20.908;2023-02-11T01:42:29;101391.00;;;4.50
45850;BMP180;10739;52.198;20.908;2023-02-11T01:44:57;101401.00;;;4.30
45850;BMP180;10739;52.198;20.908;2023-02-11T01:47:23;101404.00;;;4.40
45850;BMP180;10739;52.198;20.908;2023-02-11T01:49:59;101420.00;;;4.40
45850;BMP180;10739;52.198;20.908;2023-02-11T01:52:34;101424.00;;;4.40
45850;BMP180;10739;52.198;20.908;2023-02-11T01:55:07;101404.00;;;4.40
45850;BMP180;10739;52.198;20.908;2023-02-11T01:58:01;101391.00;;;4.60
45850;BMP180;10739;52.198;20.908;2023-02-11T02:00:39;101391.00;;;4.80
45850;BMP180;10739;52.198;20.908;2023-02-11T02:03:17;101369.00;;;4.60
45850;BMP180;10739;52.198;20.908;2023-02-11T02:08:40;101352.00;;;4.50
45850;BMP180;10739;52.198;20.908;2023-02-11T02:11:08;101346.00;;;4.70
45850;BMP180;10739;52.198;20.908;2023-02-11T02:13:35;101337.00;;;4.30
45850;BMP180;10739;52.198;20.908;2023-02-11T02:16:05;101332.00;;;4.30
45850;BMP180;10739;52.198;20.908;2023-02-11T02:38:39;101294.00;;;4.90
45850;BMP180;10739;52.198;20.908;2023-02-11T02:41:13;101300.00;;;4.40
45850;BMP180;10739;52.198;20.908;2023-02-11T02:43:47;101291.00;;;4.20
45850;BMP180;10739;52.198;20.908;2023-02-11T02:46:31;101280.00;;;4.20
45850;BMP180;10739;52.198;20.908;2023-02-11T02:48:59;101280.00;;;4.30
45850;BMP180;10739;52.198;20.908;2023-02-11T02:57:48;101274.00;;;4.80
45850;BMP180;10739;52.198;20.908;2023-02-11T03:06:35;101269.00;;;4.70
45850;BMP180;10739;52.198;20.908;2023-02-11T03:09:34;101270.00;;;4.40
45850;BMP180;10739;52.198;20.908;2023-02-11T03:12:05;101257.00;;;4.20
45850;BMP180;10739;52.198;20.908;2023-02-11T03:14:32;101261.00;;;4.40
45850;BMP180;10739;52.198;20.908;2023-02-11T03:17:03;101252.00;;;4.40
45850;BMP180;10739;52.198;20.908;2023-02-11T03:19:44;101243.00;;;4.40
45850;BMP180;10739;52.198;20.908;2023-02-11T03:22:21;101236.00;;;4.60
45850;BMP180;10739;52.198;20.908;2023-02-11T03:24:50;101228.00;;;4.80
45850;BMP180;10739;52.198;20.908;2023-02-11T03:27:26;101230.00;;;4.30
45850;BMP180;10739;52.198;20.908;2023-02-11T03:30:46;101234.00;;;4.60
45850;BMP180;10739;52.198;20.908;2023-02-11T03:33:34;101235.00;;;4.40
45850;BMP180;10739;52.198;20.908;2023-02-11T03:36:11;101219.00;;;4.50
45850;BMP180;10739;52.198;20.908;2023-02-11T03:38:49;101206.00;;;4.40
45850;BMP180;10739;52.198;20.908;2023-02-11T03:41:20;101215.00;;;4.40
45850;BMP180;10739;52.198;20.908;2023-02-11T03:43:54;101196.00;;;4.60
45850;BMP180;10739;52.198;20.908;2023-02-11T03:46:36;101206.00;;;4.60
45850;BMP180;10739;52.198;20.908;2023-02-11T03:49:11;101196.00;;;4.60
45850;BMP180;10739;52.198;20.908;2023-02-11T03:51:39;101192.00;;;4.60
45850;BMP180;10739;52.198;20.908;2023-02-11T03:54:13;101190.00;;;4.40
45850;BMP180;10739;52.198;20.908;2023-02-11T03:56:51;101191.00;;;4.70
45850;BMP180;10739;52.198;20.908;2023-02-11T03:59:19;101190.00;;;4.40
45850;BMP180;10739;52.198;20.908;2023-02-11T04:01:46;101188.00;;;4.70
45850;BMP180;10739;52.198;20.908;2023-02-11T04:04:13;101187.00;;;4.90
45850;BMP180;10739;52.198;20.908;2023-02-11T04:06:39;101168.00;;;4.60
45850;BMP180;10739;52.198;20.908;2023-02-11T04:09:06;101159.00;;;4.40
45850;BMP180;10739;52.198;20.908;2023-02-11T04:11:32;101145.00;;;4.30
45850;BMP180;10739;52.198;20.908;2023-02-11T04:13:59;101134.00;;;4.30
45850;BMP180;10739;52.198;20.908;2023-02-11T04:16:25;101136.00;;;4.30
45850;BMP180;10739;52.198;20.908;2023-02-11T04:18:52;101109.00;;;4.30
45850;BMP180;10739;52.198;20.908;2023-02-11T04:21:18;101120.00;;;4.40
45850;BMP180;10739;52.198;20.908;2023-02-11T04:23:44;101123.00;;;4.40
45850;BMP180;10739;52.198;20.908;2023-02-11T04:26:11;101131.00;;;4.50
45850;BMP180;10739;52.198;20.908;2023-02-11T04:28:37;101125.00;;;4.40
45850;BMP180;10739;52.198;20.908;2023-02-11T04:31:03;101114.00;;;4.40
45850;BMP180;10739;52.198;20.908;2023-02-11T04:33:30;101118.00;;;4.50
45850;BMP180;10739;52.198;20.908;2023-02-11T04:35:56;101116.00;;;4.50
45850;BMP180;10739;52.198;20.908;2023-02-11T04:38:23;101106.00;;;4.40
45850;BMP180;10739;52.198;20.908;2023-02-11T04:40:50;101102.00;;;4.60
45850;BMP180;10739;52.198;20.908;2023-02-11T04:43:16;101079.00;;;4.00
45850;BMP180;10739;52.198;20.908;2023-02-11T04:45:42;101072.00;;;4.20
45850;BMP180;10739;52.198;20.908;2023-02-11T04:48:09;101074.00;;;4.30
45850;BMP180;10739;52.198;20.908;2023-02-11T04:50:35;101059.00;;;4.40
45850;BMP180;10739;52.198;20.908;2023-02-11T04:53:01;101041.00;;;4.10
45850;BMP180;10739;52.198;20.908;2023-02-11T04:55:28;101040.00;;;4.10
45850;BMP180;10739;52.198;20.908;2023-02-11T04:57:54;101049.00;;;4.20
45850;BMP180;10739;52.198;20.908;2023-02-11T05:00:21;101036.00;;;4.20
45850;BMP180;10739;52.198;20.908;2023-02-11T05:02:47;101027.00;;;4.70
45850;BMP180;10739;52.198;20.908;2023-02-11T05:05:14;101039.00;;;4.40
45850;BMP180;10739;52.198;20.908;2023-02-11T05:07:40;101035.00;;;4.50
45850;BMP180;10739;52.198;20.908;2023-02-11T05:10:06;101037.00;;;4.80
45850;BMP180;10739;52.198;20.908;2023-02-11T05:12:33;101024.00;;;4.60
45850;BMP180;10739;52.198;20.908;2023-02-11T05:14:59;101018.00;;;4.60
45850;BMP180;10739;52.198;20.908;2023-02-11T05:17:25;101017.00;;;4.40
45850;BMP180;10739;52.198;20.908;2023-02-11T05:19:52;101014.00;;;4.30
45850;BMP180;10739;52.198;20.908;2023-02-11T05:22:18;101021.00;;;4.90
45850;BMP180;10739;52.198;20.908;2023-02-11T05:24:46;101009.00;;;4.50
45850;BMP180;10739;52.198;20.908;2023-02-11T05:27:12;101004.00;;;4.50
45850;BMP180;10739;52.198;20.908;2023-02-11T05:29:39;100989.00;;;4.40
45850;BMP180;10739;52.198;20.908;2023-02-11T05:32:05;101000.00;;;4.30
45850;BMP180;10739;52.198;20.908;2023-02-11T05:34:35;100987.00;;;4.40
45850;BMP180;10739;52.198;20.908;2023-02-11T05:37:01;100985.00;;;4.50
45850;BMP180;10739;52.198;20.908;2023-02-11T05:39:27;100991.00;;;4.60
45850;BMP180;10739;52.198;20.908;2023-02-11T05:41:54;100996.00;;;4.50
45850;BMP180;10739;52.198;20.908;2023-02-11T05:44:20;100998.00;;;4.40
45850;BMP180;10739;52.198;20.908;2023-02-11T05:46:46;100990.00;;;4.40
45850;BMP180;10739;52.198;20.908;2023-02-11T05:49:15;100991.00;;;4.80
45850;BMP180;10739;52.198;20.908;2023-02-11T05:51:42;100985.00;;;4.60
45850;BMP180;10739;52.198;20.908;2023-02-11T05:54:09;100988.00;;;4.70
45850;BMP180;10739;52.198;20.908;2023-02-11T05:56:35;100984.00;;;4.50
45850;BMP180;10739;52.198;20.908;2023-02-11T05:59:01;100976.00;;;4.30
45850;BMP180;10739;52.198;20.908;2023-02-11T06:01:28;100960.00;;;4.70
45850;BMP180;10739;52.198;20.908;2023-02-11T06:03:54;100964.00;;;4.70
45850;BMP180;10739;52.198;20.908;2023-02-11T06:06:20;100974.00;;;4.90
45850;BMP180;10739;52.198;20.908;2023-02-11T06:08:47;100962.00;;;5.00
45850;BMP180;10739;52.198;20.908;2023-02-11T06:11:15;100967.00;;;4.80
45850;BMP180;10739;52.198;20.908;2023-02-11T06:13:42;100954.00;;;4.80
45850;BMP180;10739;52.198;20.908;2023-02-11T06:16:09;100957.00;;;4.60
45850;BMP180;10739;52.198;20.908;2023-02-11T06:18:35;100957.00;;;4.80
45850;BMP180;10739;52.198;20.908;2023-02-11T06:21:09;100947.00;;;4.80
45850;BMP180;10739;52.198;20.908;2023-02-11T06:23:37;100954.00;;;4.20
45850;BMP180;10739;52.198;20.908;2023-02-11T06:26:07;100953.00;;;4.90
45850;BMP180;10739;52.198;20.908;2023-02-11T06:28:34;100941.00;;;4.70
45850;BMP180;10739;52.198;20.908;2023-02-11T06:31:05;100927.00;;;4.90
45850;BMP180;10739;52.198;20.908;2023-02-11T06:33:33;100942.00;;;5.00
45850;BMP180;10739;52.198;20.908;2023-02-11T06:36:00;100944.00;;;5.00
45850;BMP180;10739;52.198;20.908;2023-02-11T06:38:26;100937.00;;;4.70
45850;BMP180;10739;52.198;20.908;2023-02-11T06:40:52;100927.00;;;5.00
45850;BMP180;10739;52.198;20.908;2023-02-11T06:43:19;100934.00;;;4.80
45850;BMP180;10739;52.198;20.908;2023-02-11T06:45:52;100920.00;;;5.10
45850;BMP180;10739;52.198;20.908;2023-02-11T06:48:20;100925.00;;;5.00
45850;BMP180;10739;52.198;20.908;2023-02-11T06:50:46;100922.00;;;5.00
45850;BMP180;10739;52.198;20.908;2023-02-11T06:53:12;100926.00;;;5.00
45850;BMP180;10739;52.198;20.908;2023-02-11T06:55:38;100910.00;;;5.20
45850;BMP180;10739;52.198;20.908;2023-02-11T06:58:05;100899.00;;;4.80
45850;BMP180;10739;52.198;20.908;2023-02-11T07:00:31;100905.00;;;4.80
45850;BMP180;10739;52.198;20.908;2023-02-11T07:02:57;100905.00;;;4.90
45850;BMP180;10739;52.198;20.908;2023-02-11T07:05:24;100890.00;;;5.10
45850;BMP180;10739;52.198;20.908;2023-02-11T07:07:50;100903.00;;;4.90
45850;BMP180;10739;52.198;20.908;2023-02-11T07:10:17;100894.00;;;4.80
45850;BMP180;10739;52.198;20.908;2023-02-11T07:12:43;100900.00;;;5.00
45850;BMP180;10739;52.198;20.908;2023-02-11T07:15:10;100905.00;;;4.80
45850;BMP180;10739;52.198;20.908;2023-02-11T07:17:36;100902.00;;;4.80
45850;BMP180;10739;52.198;20.908;2023-02-11T07:20:03;100910.00;;;4.90
45850;BMP180;10739;52.198;20.908;2023-02-11T07:22:30;100906.00;;;4.80
45850;BMP180;10739;52.198;20.908;2023-02-11T07:24:56;100912.00;;;5.00
45850;BMP180;10739;52.198;20.908;2023-02-11T07:27:22;100911.00;;;5.00
45850;BMP180;10739;52.198;20.908;2023-02-11T07:29:49;100905.00;;;5.40
45850;BMP180;10739;52.198;20.908;2023-02-11T07:32:15;100907.00;;;5.10
45850;BMP180;10739;52.198;20.908;2023-02-11T07:34:42;100908.00;;;4.90
45850;BMP180;10739;52.198;20.908;2023-02-11T07:37:08;100908.00;;;5.00
45850;BMP180;10739;52.198;20.908;2023-02-11T07:39:35;100914.00;;;4.50
45850;BMP180;10739;52.198;20.908;2023-02-11T07:42:02;100902.00;;;4.50
45850;BMP180;10739;52.198;20.908;2023-02-11T07:44:29;100895.00;;;4.70
45850;BMP180;10739;52.198;20.908;2023-02-11T07:46:55;100893.00;;;4.50
45850;BMP180;10739;52.198;20.908;2023-02-11T07:49:22;100895.00;;;4.70
45850;BMP180;10739;52.198;20.908;2023-02-11T07:51:48;100899.00;;;4.70
45850;BMP180;10739;52.198;20.908;2023-02-11T07:54:16;100907.00;;;4.90
45850;BMP180;10739;52.198;20.908;2023-02-11T07:56:43;100902.00;;;5.00
45850;BMP180;10739;52.198;20.908;2023-02-11T07:59:10;100894.00;;;4.80
45850;BMP180;10739;52.198;20.908;2023-02-11T08:01:36;100899.00;;;4.80
45850;BMP180;10739;52.198;20.908;2023-02-11T08:04:03;100898.00;;;4.90
45850;BMP180;10739;52.198;20.908;2023-02-11T08:06:33;100890.00;;;4.60
45850;BMP180;10739;52.198;20.908;2023-02-11T08:09:06;100896.00;;;4.80
45850;BMP180;10739;52.198;20.908;2023-02-11T08:11:33;100893.00;;;4.90
45850;BMP180;10739;52.198;20.908;2023-02-11T08:14:00;100882.00;;;4.80
45850;BMP180;10739;52.198;20.908;2023-02-11T08:16:30;100875.00;;;5.00
45850;BMP180;10739;52.198;20.908;2023-02-11T08:19:00;100874.00;;;4.80
45850;BMP180;10739;52.198;20.908;2023-02-11T08:21:27;100887.00;;;4.50
45850;BMP180;10739;52.198;20.908;2023-02-11T08:23:54;100887.00;;;4.50
45850;BMP180;10739;52.198;20.908;2023-02-11T08:26:25;100882.00;;;4.50
45850;BMP180;10739;52.198;20.908;2023-02-11T08:28:54;100872.00;;;4.50
45850;BMP180;10739;52.198;20.908;2023-02-11T08:31:28;100872.00;;;4.40
45850;BMP180;10739;52.198;20.908;2023-02-11T08:33:54;100852.00;;;4.10
45850;BMP180;10739;52.198;20.908;2023-02-11T08:36:26;100854.00;;;4.30
45850;BMP180;10739;52.198;20.908;2023-02-11T08:38:59;100862.00;;;4.50
45850;BMP180;10739;52.198;20.908;2023-02-11T08:41:32;100860.00;;;4.30
45850;BMP180;10739;52.198;20.908;2023-02-11T08:44:00;100867.00;;;4.40
45850;BMP180;10739;52.198;20.908;2023-02-11T08:46:27;100856.00;;;4.20
45850;BMP180;10739;52.198;20.908;2023-02-11T08:48:53;100829.00;;;4.60
45850;BMP180;10739;52.198;20.908;2023-02-11T08:51:24;100852.00;;;4.30
45850;BMP180;10739;52.198;20.908;2023-02-11T08:53:53;100827.00;;;4.70
45850;BMP180;10739;52.198;20.908;2023-02-11T08:56:22;100804.00;;;4.40
45850;BMP180;10739;52.198;20.908;2023-02-11T08:58:50;100800.00;;;4.60
45850;BMP180;10739;52.198;20.908;2023-02-11T09:01:23;100794.00;;;4.40
45850;BMP180;10739;52.198;20.908;2023-02-11T09:03:50;100806.00;;;4.80
45850;BMP180;10739;52.198;20.908;2023-02-11T09:06:17;100789.00;;;5.20
45850;BMP180;10739;52.198;20.908;2023-02-11T09:08:48;100776.00;;;4.30
45850;BMP180;10739;52.198;20.908;2023-02-11T09:11:17;100757.00;;;4.20
45850;BMP180;10739;52.198;20.908;2023-02-11T09:13:45;100765.00;;;4.30
45850;BMP180;10739;52.198;20.908;2023-02-11T09:16:25;100759.00;;;4.40
45850;BMP180;10739;52.198;20.908;2023-02-11T09:18:51;100764.00;;;4.80
45850;BMP180;10739;52.198;20.908;2023-02-11T09:21:19;100761.00;;;4.80
45850;BMP180;10739;52.198;20.908;2023-02-11T09:23:46;100768.00;;;4.90
45850;BMP180;10739;52.198;20.908;2023-02-11T09:26:20;100775.00;;;5.30
45850;BMP180;10739;52.198;20.908;2023-02-11T09:28:48;100772.00;;;4.90
45850;BMP180;10739;52.198;20.908;2023-02-11T09:31:18;100788.00;;;5.00
45850;BMP180;10739;52.198;20.908;2023-02-11T09:33:48;100797.00;;;4.60
45850;BMP180;10739;52.198;20.908;2023-02-11T09:36:19;100796.00;;;5.20
45850;BMP180;10739;52.198;20.908;2023-02-11T09:38:47;100799.00;;;4.70
45850;BMP180;10739;52.198;20.908;2023-02-11T09:44:03;100797.00;;;4.60
45850;BMP180;10739;52.198;20.908;2023-02-11T09:46:38;100813.00;;;5.00
45850;BMP180;10739;52.198;20.908;2023-02-11T09:49:15;100811.00;;;4.90
45850;BMP180;10739;52.198;20.908;2023-02-11T09:51:57;100825.00;;;4.90
45850;BMP180;10739;52.198;20.908;2023-02-11T09:54:41;100824.00;;;4.70
45850;BMP180;10739;52.198;20.908;2023-02-11T09:57:11;100805.00;;;4.80
45850;BMP180;10739;52.198;20.908;2023-02-11T09:59:38;100783.00;;;4.50
45850;BMP180;10739;52.198;20.908;2023-02-11T10:08:34;100763.00;;;4.40
45850;BMP180;10739;52.198;20.908;2023-02-11T10:12:07;100761.00;;;4.70
45850;BMP180;10739;52.198;20.908;2023-02-11T10:20:38;100789.00;;;4.80
45850;BMP180;10739;52.198;20.908;2023-02-11T10:23:25;100771.00;;;4.80
45850;BMP180;10739;52.198;20.908;2023-02-11T10:25:56;100753.00;;;4.80
45850;BMP180;10739;52.198;20.908;2023-02-11T10:28:34;100754.00;;;4.40
45850;BMP180;10739;52.198;20.908;2023-02-11T10:31:35;100745.00;;;4.80
45850;BMP180;10739;52.198;20.908;2023-02-11T10:34:08;100734.00;;;4.60
45850;BMP180;10739;52.198;20.908;2023-02-11T10:36:39;100712.00;;;4.60
45850;BMP180;10739;52.198;20.908;2023-02-11T10:39:17;100706.00;;;4.60
45850;BMP180;10739;52.198;20.908;2023-02-11T10:41:52;100706.00;;;4.20
45850;BMP180;10739;52.198;20.908;2023-02-11T10:44:34;100680.00;;;4.30
45850;BMP180;10739;52.198;20.908;2023-02-11T10:47:08;100700.00;;;4.60
45850;BMP180;10739;52.198;20.908;2023-02-11T10:49:46;100707.00;;;4.40
45850;BMP180;10739;52.198;20.908;2023-02-11T10:52:27;100697.00;;;4.50
45850;BMP180;10739;52.198;20.908;2023-02-11T10:57:48;100674.00;;;4.60
45850;BMP180;10739;52.198;20.908;2023-02-11T11:00:37;100675.00;;;4.70
45850;BMP180;10739;52.198;20.908;2023-02-11T11:03:28;100690.00;;;4.90
45850;BMP180;10739;52.198;20.908;2023-02-11T11:06:01;100678.00;;;4.70
45850;BMP180;10739;52.198;20.908;2023-02-11T11:08:46;100658.00;;;4.60
45850;BMP180;10739;52.198;20.908;2023-02-11T11:11:24;100681.00;;;4.80
45850;BMP180;10739;52.198;20.908;2023-02-11T11:13:59;100665.00;;;4.50
45850;BMP180;10739;52.198;20.908;2023-02-11T11:16:31;100659.00;;;4.80
45850;BMP180;10739;52.198;20.908;2023-02-11T11:21:43;100687.00;;;4.90
45850;BMP180;10739;52.198;20.908;2023-02-11T11:24:31;100703.00;;;4.90
45850;BMP180;10739;52.198;20.908;2023-02-11T11:27:02;100702.00;;;4.60
45850;BMP180;10739;52.198;20.908;2023-02-11T11:29:48;100703.00;;;5.00
45850;BMP180;10739;52.198;20.908;2023-02-11T11:32:28;100698.00;;;5.00
45850;BMP180;10739;52.198;20.908;2023-02-11T11:35:06;100699.00;;;5.10
45850;BMP180;10739;52.198;20.908;2023-02-11T11:37:36;100708.00;;;5.00
45850;BMP180;10739;52.198;20.908;2023-02-11T11:40:27;100693.00;;;5.20
45850;BMP180;10739;52.198;20.908;2023-02-11T11:45:39;100695.00;;;5.00
45850;BMP180;10739;52.198;20.908;2023-02-11T11:48:42;100678.00;;;5.00
45850;BMP180;10739;52.198;20.908;2023-02-11T11:51:11;100665.00;;;5.00
45850;BMP180;10739;52.198;20.908;2023-02-11T11:53:52;100668.00;;;5.10
45850;BMP180;10739;52.198;20.908;2023-02-11T11:56:27;100658.00;;;5.00
45850;BMP180;10739;52.198;20.908;2023-02-11T11:58:55;100657.00;;;4.80
45850;BMP180;10739;52.198;20.908;2023-02-11T12:07:23;100658.00;;;5.00
45850;BMP180;10739;52.198;20.908;2023-02-11T12:10:36;100653.00;;;5.00
45850;BMP180;10739;52.198;20.908;2023-02-11T12:16:35;100652.00;;;5.00
45850;BMP180;10739;52.198;20.908;2023-02-11T12:22:11;100647.00;;;5.10
45850;BMP180;10739;52.198;20.908;2023-02-11T12:24:49;100651.00;;;5.40
45850;BMP180;10739;52.198;20.908;2023-02-11T12:35:55;100661.00;;;5.30
45850;BMP180;10739;52.198;20.908;2023-02-11T12:44:36;100665.00;;;4.90
45850;BMP180;10739;52.198;20.908;2023-02-11T12:47:36;100655.00;;;5.30
45850;BMP180;10739;52.198;20.908;2023-02-11T12:50:34;100646.00;;;5.40
45850;BMP180;10739;52.198;20.908;2023-02-11T12:56:04;100643.00;;;5.40
45850;BMP180;10739;52.198;20.908;2023-02-11T12:58:35;100626.00;;;5.50
45850;BMP180;10739;52.198;20.908;2023-02-11T13:01:35;100639.00;;;5.50
45850;BMP180;10739;52.198;20.908;2023-02-11T13:04:24;100644.00;;;5.50
45850;BMP180;10739;52.198;20.908;2023-02-11T13:07:18;100652.00;;;5.60
45850;BMP180;10739;52.198;20.908;2023-02-11T13:10:00;100652.00;;;5.30
45850;BMP180;10739;52.198;20.908;2023-02-11T13:12:32;100649.00;;;5.70
45850;BMP180;10739;52.198;20.908;2023-02-11T13:15:19;100638.00;;;5.50
45850;BMP180;10739;52.198;20.908;2023-02-11T13:24:13;100631.00;;;5.50
45850;BMP180;10739;52.198;20.908;2023-02-11T13:27:32;100641.00;;;5.70
45850;BMP180;10739;52.198;20.908;2023-02-11T13:35:37;100627.00;;;5.60
45850;BMP180;10739;52.198;20.908;2023-02-11T13:38:17;100636.00;;;5.70
45850;BMP180;10739;52.198;20.908;2023-02-11T13:43:32;100645.00;;;6.00
45850;BMP180;10739;52.198;20.908;2023-02-11T13:46:20;100635.00;;;5.70
45850;BMP180;10739;52.198;20.908;2023-02-11T13:48:50;100637.00;;;5.60
45850;BMP180;10739;52.198;20.908;2023-02-11T13:51:38;100638.00;;;5.40
45850;BMP180;10739;52.198;20.908;2023-02-11T13:54:08;100629.00;;;5.50
45850;BMP180;10739;52.198;20.908;2023-02-11T13:56:44;100632.00;;;5.60
45850;BMP180;10739;52.198;20.908;2023-02-11T14:14:30;100633.00;;;5.80
45850;BMP180;10739;52.198;20.908;2023-02-11T14:19:36;100634.00;;;5.50
45850;BMP180;10739;52.198;20.908;2023-02-11T14:22:17;100638.00;;;5.90
45850;BMP180;10739;52.198;20.908;2023-02-11T14:25:01;100638.00;;;5.80
45850;BMP180;10739;52.198;20.908;2023-02-11T14:27:36;100653.00;;;5.50
45850;BMP180;10739;52.198;20.908;2023-02-11T14:30:24;100647.00;;;5.80
45850;BMP180;10739;52.198;20.908;2023-02-11T14:42:16;100655.00;;;5.70
45850;BMP180;10739;52.198;20.908;2023-02-11T14:44:48;100652.00;;;5.80
45850;BMP180;10739;52.198;20.908;2023-02-11T14:47:23;100657.00;;;5.70
45850;BMP180;10739;52.198;20.908;2023-02-11T14:49:53;100657.00;;;5.50
45850;BMP180;10739;52.198;20.908;2023-02-11T14:52:30;100653.00;;;5.50
45850;BMP180;10739;52.198;20.908;2023-02-11T14:58:29;100662.00;;;6.00
45850;BMP180;10739;52.198;20.908;2023-02-11T15:01:01;100662.00;;;6.00
45850;BMP180;10739;52.198;20.908;2023-02-11T15:03:38;100667.00;;;5.80
45850;BMP180;10739;52.198;20.908;2023-02-11T15:06:22;100680.00;;;6.00
45850;BMP180;10739;52.198;20.908;2023-02-11T15:09:12;100675.00;;;5.70
45850;BMP180;10739;52.198;20.908;2023-02-11T15:11:45;100673.00;;;5.90
45850;BMP180;10739;52.198;20.908;2023-02-11T15:14:34;100685.00;;;5.70
45850;BMP180;10739;52.198;20.908;2023-02-11T15:17:05;100681.00;;;5.70
45850;BMP180;10739;52.198;20.908;2023-02-11T15:19:40;100691.00;;;5.70
45850;BMP180;10739;52.198;20.908;2023-02-11T15:22:21;100676.00;;;5.50
45850;BMP180;10739;52.198;20.908;2023-02-11T15:25:20;100675.00;;;5.90
45850;BMP180;10739;52.198;20.908;2023-02-11T15:27:51;100682.00;;;5.90
45850;BMP180;10739;52.198;20.908;2023-02-11T15:30:31;100673.00;;;5.70
45850;BMP180;10739;52.198;20.908;2023-02-11T15:33:02;100700.00;;;5.70
45850;BMP180;10739;52.198;20.908;2023-02-11T15:35:34;100692.00;;;5.60
45850;BMP180;10739;52.198;20.908;2023-02-11T15:38:03;100687.00;;;5.90
45850;BMP180;10739;52.198;20.908;2023-02-11T15:40:34;100689.00;;;5.70
45850;BMP180;10739;52.198;20.908;2023-02-11T15:43:08;100703.00;;;6.00
45850;BMP180;10739;52.198;20.908;2023-02-11T15:45:37;100705.00;;;6.00
45850;BMP180;10739;52.198;20.908;2023-02-11T15:48:21;100710.00;;;5.60
45850;BMP180;10739;52.198;20.908;2023-02-11T15:50:56;100708.00;;;5.80
45850;BMP180;10739;52.198;20.908;2023-02-11T15:53:40;100702.00;;;5.70
45850;BMP180;10739;52.198;20.908;2023-02-11T15:56:23;100706.00;;;5.50
45850;BMP180;10739;52.198;20.908;2023-02-11T15:58:53;100710.00;;;5.90
45850;BMP180;10739;52.198;20.908;2023-02-11T16:01:35;100711.00;;;5.60
45850;BMP180;10739;52.198;20.908;2023-02-11T16:04:04;100711.00;;;5.80
45850;BMP180;10739;52.198;20.908;2023-02-11T16:06:40;100713.00;;;5.80
45850;BMP180;10739;52.198;20.908;2023-02-11T16:11:55;100729.00;;;5.70
45850;BMP180;10739;52.198;20.908;2023-02-11T16:14:28;100705.00;;;5.80
45850;BMP180;10739;52.198;20.908;2023-02-11T16:17:32;100713.00;;;5.70
45850;BMP180;10739;52.198;20.908;2023-02-11T16:19:59;100725.00;;;6.10
45850;BMP180;10739;52.198;20.908;2023-02-11T16:22:28;100721.00;;;5.90
45850;BMP180;10739;52.198;20.908;2023-02-11T16:25:00;100730.00;;;5.90
45850;BMP180;10739;52.198;20.908;2023-02-11T16:27:39;100732.00;;;6.00
45850;BMP180;10739;52.198;20.908;2023-02-11T16:30:31;100751.00;;;6.00
45850;BMP180;10739;52.198;20.908;2023-02-11T16:32:57;100753.00;;;5.90
45850;BMP180;10739;52.198;20.908;2023-02-11T16:35:24;100751.00;;;6.10
45850;BMP180;10739;52.198;20.908;2023-02-11T16:37:50;100757.00;;;6.30
45850;BMP180;10739;52.198;20.908;2023-02-11T16:40:17;100763.00;;;6.30
45850;BMP180;10739;52.198;20.908;2023-02-11T16:42:43;100760.00;;;6.20
45850;BMP180;10739;52.198;20.908;2023-02-11T16:45:09;100764.00;;;5.90